Current Conditions (Updated 8:55am on 4/22/24)
Temperature
 51°
4.64
51°  
39°  
0
10
20
30
40
50
60
70
80
90
100
Dew Point
36°
36°  
29°  
-20
-10
0
10
20
30
40
50
60
70
80
Wind Chill
51°
51°  
39°  
-20
-10
0
10
20
30
40
50
60
70
80
Wind Chill
Humidity
55%
67% 
55% 
0
10
20
30
40
50
60
70
80
90
100
Barometer
30.10
   Steady
30.10  
29.99  
28.00
28.30
28.60
28.90
29.20
29.50
29.80
30.10
30.40
30.70
31.00
Temperature
Dew Point
Humidity
Pressure
Wind
0mph
 SW
Daily Rain
.00
.05
.10
.15
.20
.25
.30
.35
.40
.45
.50
Rain Today
 0.00" 
Month Rain
0.00
0.20
0.40
0.60
0.80
1.00
1.20
1.40
1.60
1.80
2.00
Month Rain
 1.46" 
Year Rain
0.00
2.50
5.00
7.50
10.00
12.50
15.00
17.50
20.00
22.50
25.00
Year Rain
 20.04" 
Sun & Moon Data
Sunrise 6:13am
Sunset 7:44pm
Moonrise 6:44pm
Moonset 5:34am
Moon % 97%
Other Rain Data
Past Hour 0.00 Past 24 Hours 0.00
Past 3 Hours 0.00 Past 7 Days 0.00
Past 6 Hours 0.00
Cloud Height
3897


7 Day Forecast
NWS Forecast for Georgetown, Sussex County Airport DE
National Weather Service Forecast for: Georgetown, Sussex County Airport DE
Issued by: National Weather Service Philadelphia, PA
Updated: 7:10 am EDT Apr 22, 2024

Georgetown,DE.
 
Today

Today: Mostly cloudy through mid morning, then gradual clearing, with a high near 63. North wind around 10 mph.
Becoming
Sunny

Tonight

Tonight: Clear, with a low around 38. Southeast wind around 5 mph becoming calm.
Clear

Tuesday

Tuesday: Sunny, with a high near 68. South wind 5 to 10 mph.
Sunny

Tuesday
Night
Tuesday Night: A slight chance of showers after 2am.  Increasing clouds, with a low around 50. South wind around 10 mph.  Chance of precipitation is 20%.
Partly Cloudy
then Slight
Chance
Showers
Wednesday

Wednesday: A chance of showers, mainly between 8am and 2pm.  Partly sunny, with a high near 69. West wind 10 to 15 mph, with gusts as high as 25 mph.  Chance of precipitation is 30%. New precipitation amounts of less than a tenth of an inch possible.
Chance
Showers

Wednesday
Night
Wednesday Night: Mostly clear, with a low around 39.
Mostly Clear

Thursday

Thursday: Sunny, with a high near 56.
Sunny

Thursday
Night
Thursday Night: Mostly clear, with a low around 37.
Mostly Clear

Friday

Friday: Sunny, with a high near 60.
Sunny

Hi 63 °F Lo 38 °F Hi 68 °F Lo 50 °F Hi 69 °F Lo 39 °F Hi 56 °F Lo 37 °F Hi 60 °F

 

Today
 
Mostly cloudy through mid morning, then gradual clearing, with a high near 63. North wind around 10 mph.
Tonight
 
Clear, with a low around 38. Southeast wind around 5 mph becoming calm.
Tuesday
 
Sunny, with a high near 68. South wind 5 to 10 mph.
Tuesday Night
 
A slight chance of showers after 2am. Increasing clouds, with a low around 50. South wind around 10 mph. Chance of precipitation is 20%.
Wednesday
 
A chance of showers, mainly between 8am and 2pm. Partly sunny, with a high near 69. West wind 10 to 15 mph, with gusts as high as 25 mph. Chance of precipitation is 30%. New precipitation amounts of less than a tenth of an inch possible.
Wednesday Night
 
Mostly clear, with a low around 39.
Thursday
 
Sunny, with a high near 56.
Thursday Night
 
Mostly clear, with a low around 37.
Friday
 
Sunny, with a high near 60.
Friday Night
 
Mostly clear, with a low around 43.
Saturday
 
Partly sunny, with a high near 66.
Saturday Night
 
Mostly cloudy, with a low around 52.
Sunday
 
Mostly sunny, with a high near 74.

 

Forecast from NOAA-NWS for Georgetown, Sussex County Airport DE.

Current Front Map
Current Radar
Current Cloud Map
Area Weather Current Conditions
Nearby METAR Reports

KPHL - Philadelphia, Pennsylvania
Updated: Mon, 22-Apr-2024 7:54am EDT
Few Clouds
Few Clouds
 Wind from NW
Wind: NW 6 mph , 9 km/h
Temperature: 45°F , 7°C
Wind Chill: 42°F , 6°C
Dew Point: 27°F , -3°C
Humidity: 49%
Barometer: 30.10 inHg , 1019.3 hPa
Clouds: Few Clouds
Visibility: 10 miles , 16 km
Cloud details: Few Clouds 27000 ft
2024/04/22 11:54 KPHL 221154Z 31005KT 10SM FEW270 07/M03 A3010 RMK AO2 SLP193 T00721028 10072 20039 53017 $
KMPO - Mt. Pocono, Pennsylvania
Updated: Mon, 22-Apr-2024 7:53am EDT
Clear
Clear
 Wind from WNW
Wind: WNW 10 mph , 17 km/h
Temperature: 36°F , 2°C
Wind Chill: 29°F , -2°C
Dew Point: 23°F , -5°C
Humidity: 60%
Barometer: 30.01 inHg , 1016.3 hPa
Clouds: Clear
Visibility: 10 miles , 16 km
2024/04/22 11:53 KMPO 221153Z AUTO 29009KT 10SM CLR 02/M05 A3001 RMK AO2 SLP179 T00171050 10017 21017 53013
 
KACY - Atlantic City, New Jersey
Updated: Mon, 22-Apr-2024 7:54am EDT
Clear
Clear
 Wind from NNW
Wind: NNW 7 mph , 11 km/h
Temperature: 43°F , 6°C
Wind Chill: 39°F , 4°C
Dew Point: 30°F , -1°C
Humidity: 61%
Barometer: 30.10 inHg , 1019.3 hPa
Clouds: Clear
Visibility: 10 miles , 16 km
2024/04/22 11:54 KACY 221154Z 33006KT 10SM CLR 06/M01 A3010
KWWD - Wildwood, New Jersey
Updated: Mon, 22-Apr-2024 7:56am EDT
Clear
Clear
 Wind from N
Wind: N 8 mph , 13 km/h
Temperature: 46°F , 8°C
Wind Chill: 42°F , 6°C
Dew Point: 30°F , -1°C
Humidity: 53%
Barometer: 30.11 inHg , 1019.6 hPa
Clouds: Clear
Visibility: 10 miles , 16 km
2024/04/22 11:56 KWWD 221156Z AUTO 35007KT 10SM CLR 08/M01 A3011 RMK AO2 SLP197 T00831006 10083 20056 53019
 
KGED - Georgetown, Delaware
Updated: Mon, 22-Apr-2024 7:54am EDT
Clear
Clear
 Wind from varies
Wind: varies 5 mph , 7 km/h
Temperature: 43°F , 6°C
Wind Chill: 40°F , 4°C
Dew Point: 30°F , -1°C
Humidity: 61%
Barometer: 30.10 inHg , 1019.3 hPa
Clouds: Clear
Visibility: 10 miles , 16 km
2024/04/22 11:54 KGED 221154Z AUTO VRB04KT 10SM CLR 06/M01 A3010 RMK AO2 SLP194 T00611006 10061 20033 53020
KDOV - Dover Afb, Delaware
Updated: Mon, 22-Apr-2024 7:55am EDT
Clear
Clear
 Wind from NW
Wind: NW 8 mph , 13 km/h
Temperature: 45°F , 7°C
Wind Chill: 41°F , 5°C
Dew Point: 30°F , -1°C
Humidity: 57%
Barometer: 30.09 inHg , 1019 hPa
Clouds: Clear
Visibility: 10 miles , 16 km
2024/04/22 11:55 KDOV 221155Z AUTO 31007KT 10SM CLR 07/M01 A3009 RMK AO2 SLP193 T00721015 10072 20041 52019
 
KOXB - Ocean City, Maryland
Updated: Mon, 22-Apr-2024 7:53am EDT
Clear
Clear
 Wind from NW
Wind: NW 6 mph , 9 km/h
Temperature: 45°F , 7°C
Wind Chill: 42°F , 6°C
Dew Point: 36°F , 2°C
Humidity: 71%
Barometer: 30.10 inHg , 1019.3 hPa
Clouds: Clear
Visibility: 10 miles , 16 km
2024/04/22 11:53 KOXB 221153Z AUTO 32005KT 10SM CLR 07/02 A3010 RMK AO2 SLP192 70020 T00670022 10067 20022 53021
KSBY - Salisbury, Maryland
Updated: Mon, 22-Apr-2024 7:54am EDT
Clear
Clear
 Wind from NNW
Wind: NNW 7 mph , 11 km/h
Temperature: 43°F , 6°C
Wind Chill: 39°F , 4°C
Dew Point: 34°F , 1°C
Humidity: 71%
Barometer: 30.11 inHg , 1019.6 hPa
Clouds: Clear
Visibility: 10 miles , 16 km
2024/04/22 11:54 KSBY 221154Z 34006KT 10SM CLR 06/01 A3011 RMK AO2 SLP197 70016 T00610006 10061 20011 53021
Severe Weather Map